createdAt,value
2019-05-09T00:02:13.791Z,10.20
2019-05-09T00:04:44.066Z,10.20
2019-05-09T00:07:13.877Z,10.20
2019-05-09T00:09:43.965Z,10.10
2019-05-09T00:12:14.009Z,10.10
2019-05-09T00:14:43.352Z,10.10
2019-05-09T00:17:13.819Z,10.10
2019-05-09T00:19:41.206Z,10.10
2019-05-09T00:22:09.768Z,10.00
2019-05-09T00:24:37.646Z,10.00
2019-05-09T00:27:05.653Z,10.00
2019-05-09T00:29:43.804Z,10.00
2019-05-09T00:32:46.083Z,10.00
2019-05-09T00:35:33.677Z,10.00
2019-05-09T00:38:06.371Z,10.00
2019-05-09T00:40:34.530Z,10.00
2019-05-09T00:43:03.964Z,10.00
2019-05-09T00:46:03.806Z,10.00
2019-05-09T00:48:37.756Z,10.00
2019-05-09T00:51:05.564Z,10.00
2019-05-09T00:53:34.097Z,10.00
2019-05-09T00:56:04.099Z,10.00
2019-05-09T00:58:33.376Z,10.00
2019-05-09T01:01:04.062Z,9.90
2019-05-09T01:03:33.753Z,9.90
2019-05-09T01:06:04.093Z,9.90
2019-05-09T01:08:33.497Z,9.90
2019-05-09T01:11:10.955Z,9.90
2019-05-09T01:13:30.820Z,9.80
2019-05-09T01:15:58.655Z,9.90
2019-05-09T01:18:26.871Z,9.90
2019-05-09T01:20:55.153Z,9.90
2019-05-09T01:23:23.459Z,9.90
2019-05-09T01:25:52.996Z,9.80
2019-05-09T01:28:22.993Z,9.90
2019-05-09T01:30:53.097Z,9.90
2019-05-09T01:33:58.975Z,9.80
2019-05-09T01:36:47.293Z,9.80
2019-05-09T01:39:15.595Z,9.80
2019-05-09T01:41:43.756Z,9.80
2019-05-09T01:44:13.408Z,9.80
2019-05-09T01:46:43.595Z,9.80
2019-05-09T01:49:13.675Z,9.80
2019-05-09T01:51:41.199Z,9.80
2019-05-09T01:54:09.421Z,9.80
2019-05-09T01:56:38.638Z,9.70
2019-05-09T01:59:06.545Z,9.80
2019-05-09T02:01:34.455Z,9.80
2019-05-09T02:04:04.062Z,9.70
2019-05-09T02:06:33.296Z,9.70
2019-05-09T02:09:03.529Z,9.70
2019-05-09T02:11:42.377Z,9.60
2019-05-09T02:14:04.111Z,9.70
2019-05-09T02:16:48.756Z,9.70
2019-05-09T02:19:23.890Z,9.60
2019-05-09T02:21:53.073Z,9.60
2019-05-09T02:24:23.431Z,9.70
2019-05-09T02:26:53.344Z,9.70
2019-05-09T02:29:23.178Z,9.60
2019-05-09T02:31:54.461Z,9.60
2019-05-09T02:34:24.572Z,9.60
2019-05-09T02:36:51.882Z,9.60
2019-05-09T02:39:19.832Z,9.70
2019-05-09T02:42:00.875Z,9.60
2019-05-09T02:44:19.603Z,9.60
2019-05-09T02:46:59.098Z,9.60
2019-05-09T02:49:28.770Z,9.60
2019-05-09T02:51:59.186Z,9.50
2019-05-09T02:54:29.804Z,9.50
2019-05-09T02:56:58.152Z,9.50
2019-05-09T02:59:38.997Z,9.50
2019-05-09T03:02:19.496Z,9.50
2019-05-09T03:04:48.909Z,9.50
2019-05-09T03:07:18.902Z,9.40
2019-05-09T03:09:47.939Z,9.40
2019-05-09T03:12:26.509Z,9.40
2019-05-09T03:14:48.683Z,9.30
2019-05-09T03:17:18.611Z,9.30
2019-05-09T03:19:48.804Z,9.30
2019-05-09T03:22:19.055Z,9.30
2019-05-09T03:24:48.604Z,9.30
2019-05-09T03:27:24.679Z,9.40
2019-05-09T03:29:58.694Z,9.30
2019-05-09T03:32:25.180Z,9.30
2019-05-09T03:34:54.809Z,9.30
2019-05-09T03:37:22.754Z,9.30
2019-05-09T03:39:50.724Z,9.30
2019-05-09T03:42:21.535Z,9.30
2019-05-09T03:44:48.632Z,9.30
2019-05-09T03:47:31.020Z,9.30
2019-05-09T03:50:13.181Z,9.30
2019-05-09T03:52:41.228Z,9.20
2019-05-09T03:55:12.997Z,9.30
2019-05-09T03:57:47.470Z,9.20
2019-05-09T04:00:15.181Z,9.20
2019-05-09T04:02:43.460Z,9.20
2019-05-09T04:05:11.766Z,9.20
2019-05-09T04:07:40.019Z,9.20
2019-05-09T04:10:07.974Z,9.20
2019-05-09T04:12:37.580Z,9.20
2019-05-09T04:15:08.252Z,9.20
2019-05-09T04:17:44.558Z,9.20
2019-05-09T04:20:13.529Z,9.30
2019-05-09T04:22:42.482Z,9.30
2019-05-09T04:25:18.770Z,9.20
2019-05-09T04:27:50.177Z,9.30
2019-05-09T04:30:18.459Z,9.20
2019-05-09T04:32:48.131Z,9.20
2019-05-09T04:35:17.557Z,9.20
2019-05-09T04:37:48.030Z,9.20
2019-05-09T04:40:17.667Z,9.30
2019-05-09T04:42:47.439Z,9.20
2019-05-09T04:45:28.155Z,9.20
2019-05-09T04:47:57.650Z,9.30
2019-05-09T04:50:25.043Z,9.40
2019-05-09T04:52:53.129Z,9.40
2019-05-09T04:55:23.081Z,9.30
2019-05-09T04:57:51.283Z,9.20
2019-05-09T05:00:27.267Z,9.20
2019-05-09T05:02:57.529Z,9.20
2019-05-09T05:05:25.541Z,9.10
2019-05-09T05:07:53.373Z,9.20
2019-05-09T05:10:21.209Z,9.10
2019-05-09T05:12:49.141Z,9.20
2019-05-09T05:15:23.380Z,9.30
2019-05-09T05:17:51.572Z,9.30
2019-05-09T05:20:22.637Z,9.30
2019-05-09T05:23:13.159Z,9.30
2019-05-09T05:25:40.984Z,9.30
2019-05-09T05:28:09.026Z,9.30
2019-05-09T05:30:37.574Z,9.30
2019-05-09T05:33:27.839Z,9.30
2019-05-09T05:35:57.852Z,9.30
2019-05-09T05:38:27.522Z,9.30
2019-05-09T05:40:57.882Z,9.30
2019-05-09T05:43:40.054Z,9.30
2019-05-09T05:46:13.716Z,9.30
2019-05-09T05:48:42.419Z,9.40
2019-05-09T05:51:10.343Z,9.30
2019-05-09T05:53:38.466Z,9.20
2019-05-09T05:56:08.557Z,9.40
2019-05-09T05:58:38.659Z,9.30
2019-05-09T06:01:08.199Z,9.20
2019-05-09T06:03:37.768Z,9.40
2019-05-09T06:06:08.580Z,9.40
2019-05-09T06:08:38.018Z,9.40
2019-05-09T06:11:11.438Z,9.40
2019-05-09T06:13:37.971Z,9.40
2019-05-09T06:16:08.598Z,9.30
2019-05-09T06:18:38.492Z,9.40
2019-05-09T06:21:08.883Z,9.30
2019-05-09T06:23:37.476Z,9.40
2019-05-09T06:26:09.428Z,9.40
2019-05-09T06:28:37.536Z,9.40
2019-05-09T06:31:07.375Z,9.40
2019-05-09T06:33:35.107Z,9.40
2019-05-09T06:36:03.293Z,9.40
2019-05-09T06:38:31.866Z,9.40
2019-05-09T06:40:59.750Z,9.50
2019-05-09T06:43:30.789Z,9.50
2019-05-09T06:46:20.870Z,9.70
2019-05-09T06:48:48.850Z,10.00
2019-05-09T06:51:20.958Z,10.20
2019-05-09T06:53:48.708Z,10.20
2019-05-09T06:56:17.841Z,10.00
2019-05-09T06:58:47.973Z,10.00
2019-05-09T07:01:37.408Z,10.00
2019-05-09T07:04:27.645Z,10.30
2019-05-09T07:07:00.655Z,10.40
2019-05-09T07:09:35.362Z,10.40
2019-05-09T07:12:03.481Z,10.40
2019-05-09T07:14:38.276Z,10.30
2019-05-09T07:17:04.634Z,10.20
2019-05-09T07:19:32.983Z,9.90
2019-05-09T07:22:23.523Z,9.90
2019-05-09T07:25:20.539Z,9.90
2019-05-09T07:27:48.893Z,10.20
2019-05-09T07:30:37.579Z,10.50
2019-05-09T07:33:19.139Z,10.60
2019-05-09T07:35:47.671Z,10.50
2019-05-09T07:38:18.068Z,10.70
2019-05-09T07:40:47.751Z,10.50
2019-05-09T07:43:18.020Z,10.80
2019-05-09T07:46:03.489Z,11.00
2019-05-09T07:48:31.414Z,11.10
2019-05-09T07:50:59.790Z,11.00
2019-05-09T07:53:28.411Z,10.90
2019-05-09T07:55:58.210Z,10.90
2019-05-09T07:58:28.341Z,10.70
2019-05-09T08:00:59.243Z,10.80
2019-05-09T08:03:27.537Z,11.20
2019-05-09T08:05:57.854Z,11.20
2019-05-09T08:08:27.655Z,11.20
2019-05-09T08:10:55.512Z,11.10
2019-05-09T08:13:23.457Z,10.90
2019-05-09T08:15:51.637Z,11.00
2019-05-09T08:18:20.630Z,11.10
2019-05-09T08:20:48.995Z,11.40
2019-05-09T08:23:18.087Z,11.30
2019-05-09T08:25:48.367Z,11.20
2019-05-09T08:28:17.713Z,11.40
2019-05-09T08:30:48.410Z,11.50
2019-05-09T08:33:18.391Z,11.50
2019-05-09T08:35:52.126Z,11.70
2019-05-09T08:38:17.900Z,11.30
2019-05-09T08:40:49.273Z,11.50
2019-05-09T08:43:19.823Z,11.60
2019-05-09T08:45:48.433Z,12.00
2019-05-09T08:48:18.396Z,12.30
2019-05-09T08:50:50.232Z,12.20
2019-05-09T08:53:18.955Z,12.40
2019-05-09T08:55:47.462Z,12.10
2019-05-09T08:58:15.510Z,12.50
2019-05-09T09:00:43.351Z,12.50
2019-05-09T09:03:11.231Z,12.50
2019-05-09T09:05:39.173Z,12.50
2019-05-09T09:08:08.335Z,12.40
2019-05-09T09:10:38.513Z,12.40
2019-05-09T09:13:08.897Z,12.30
2019-05-09T09:16:02.428Z,12.40
2019-05-09T09:18:08.320Z,12.60
2019-05-09T09:20:38.005Z,12.90
2019-05-09T09:23:08.548Z,13.90
2019-05-09T09:25:38.627Z,14.60
2019-05-09T09:28:08.483Z,15.10
2019-05-09T09:30:38.092Z,14.60
2019-05-09T09:33:05.341Z,14.60
2019-05-09T09:35:33.502Z,15.20
2019-05-09T09:38:02.120Z,14.30
2019-05-09T09:40:30.367Z,14.40
2019-05-09T09:42:58.453Z,13.60
2019-05-09T09:45:28.003Z,13.50
2019-05-09T09:47:59.174Z,13.50
2019-05-09T09:50:27.635Z,14.00
2019-05-09T09:52:58.452Z,14.60
2019-05-09T09:55:27.610Z,14.60
2019-05-09T09:57:57.809Z,15.00
2019-05-09T10:01:13.378Z,15.30
2019-05-09T10:03:41.265Z,15.70
2019-05-09T10:06:10.230Z,16.60
2019-05-09T10:08:39.675Z,16.10
2019-05-09T10:11:08.255Z,15.10
2019-05-09T10:13:37.468Z,14.20
2019-05-09T10:16:32.680Z,13.00
2019-05-09T10:19:08.343Z,13.40
2019-05-09T10:21:40.486Z,13.40
2019-05-09T10:24:08.708Z,14.20
2019-05-09T10:26:40.352Z,15.10
2019-05-09T10:29:08.267Z,14.80
2019-05-09T10:31:39.026Z,15.90
2019-05-09T10:34:06.208Z,16.20
2019-05-09T10:36:34.043Z,15.80
2019-05-09T10:39:02.029Z,14.90
2019-05-09T10:41:31.437Z,15.60
2019-05-09T10:44:09.492Z,17.30
2019-05-09T10:46:53.674Z,17.30
2019-05-09T10:49:15.605Z,16.50
2019-05-09T10:51:43.969Z,16.90
2019-05-09T10:54:11.912Z,17.50
2019-05-09T10:56:39.864Z,17.20
2019-05-09T10:59:08.510Z,17.30
2019-05-09T11:01:38.239Z,17.30
2019-05-09T11:04:08.149Z,16.90
2019-05-09T11:06:38.221Z,17.40
2019-05-09T11:09:08.718Z,18.00
2019-05-09T11:11:37.076Z,17.80
2019-05-09T11:14:08.340Z,17.40
2019-05-09T11:16:45.479Z,16.30
2019-05-09T11:19:07.742Z,16.30
2019-05-09T11:21:35.509Z,15.90
2019-05-09T11:24:04.762Z,16.70
2019-05-09T11:26:33.025Z,16.90
2019-05-09T11:29:01.676Z,17.50
2019-05-09T11:31:29.861Z,16.80
2019-05-09T11:33:58.234Z,15.90
2019-05-09T11:36:26.125Z,15.10
2019-05-09T11:38:53.982Z,15.20
2019-05-09T11:41:21.912Z,15.10
2019-05-09T11:43:50.751Z,16.30
2019-05-09T11:46:18.824Z,16.20
2019-05-09T11:48:47.180Z,15.60
2019-05-09T11:51:17.844Z,15.40
2019-05-09T11:53:45.167Z,15.20
2019-05-09T11:56:13.374Z,15.40
2019-05-09T11:58:41.190Z,15.70
2019-05-09T12:01:09.093Z,15.60
2019-05-09T12:03:38.855Z,16.80
2019-05-09T12:06:08.032Z,17.40
2019-05-09T12:08:38.572Z,18.20
2019-05-09T12:11:08.340Z,16.70
2019-05-09T12:13:38.018Z,17.50
2019-05-09T12:16:06.039Z,16.40
2019-05-09T12:18:35.037Z,16.50
2019-05-09T12:21:02.892Z,17.80
2019-05-09T12:23:31.163Z,16.90
2019-05-09T12:25:59.646Z,16.70
2019-05-09T12:28:27.426Z,16.80
2019-05-09T12:30:55.945Z,15.90
2019-05-09T12:33:24.540Z,16.50
2019-05-09T12:35:52.766Z,17.10
2019-05-09T12:38:20.586Z,17.90
2019-05-09T12:40:48.439Z,18.70
2019-05-09T12:43:18.378Z,17.70
2019-05-09T12:45:47.819Z,17.00
2019-05-09T12:48:19.254Z,17.50
2019-05-09T12:50:48.845Z,17.80
2019-05-09T12:53:18.917Z,18.20
2019-05-09T12:55:49.412Z,17.30
2019-05-09T12:58:27.652Z,17.80
2019-05-09T13:00:58.416Z,17.40
2019-05-09T13:03:28.012Z,17.30
2019-05-09T13:05:57.541Z,17.70
2019-05-09T13:08:27.647Z,17.00
2019-05-09T13:10:55.297Z,16.80
2019-05-09T13:13:23.562Z,17.70
2019-05-09T13:16:00.907Z,19.10
2019-05-09T13:18:48.971Z,19.40
2019-05-09T13:21:18.755Z,19.20
2019-05-09T13:23:51.897Z,18.30
2019-05-09T13:26:18.532Z,16.90
2019-05-09T13:28:48.748Z,16.40
2019-05-09T13:31:18.130Z,16.10
2019-05-09T13:33:48.476Z,16.10
2019-05-09T13:36:15.770Z,16.20
2019-05-09T13:38:57.604Z,15.90
2019-05-09T13:41:13.381Z,15.70
2019-05-09T13:43:47.446Z,15.40
2019-05-09T13:46:11.749Z,15.60
2019-05-09T13:49:01.829Z,16.50
2019-05-09T13:51:10.007Z,17.70
2019-05-09T13:53:38.691Z,18.30
2019-05-09T13:56:08.488Z,19.40
2019-05-09T13:58:38.503Z,18.70
2019-05-09T14:01:07.823Z,17.00
2019-05-09T14:03:35.869Z,16.00
2019-05-09T14:06:04.341Z,15.50
2019-05-09T14:08:33.119Z,15.30
2019-05-09T14:11:00.984Z,15.20
2019-05-09T14:13:30.943Z,15.50
2019-05-09T14:16:14.224Z,15.40
2019-05-09T14:18:29.067Z,15.40
2019-05-09T14:20:57.432Z,15.50
2019-05-09T14:23:35.082Z,15.40
2019-05-09T14:25:58.866Z,15.50
2019-05-09T14:28:26.596Z,15.20
2019-05-09T14:30:59.322Z,15.20
2019-05-09T14:33:29.491Z,15.30
2019-05-09T14:35:59.329Z,14.90
2019-05-09T14:38:27.136Z,14.70
2019-05-09T14:40:54.971Z,14.70
2019-05-09T14:43:23.040Z,14.60
2019-05-09T14:45:50.932Z,14.70
2019-05-09T14:48:19.034Z,15.30
2019-05-09T14:50:49.406Z,15.00
2019-05-09T14:53:18.170Z,14.90
2019-05-09T14:55:47.570Z,15.00
2019-05-09T14:58:17.893Z,15.00
2019-05-09T15:00:47.804Z,15.00
2019-05-09T15:03:15.060Z,15.10
2019-05-09T15:05:42.871Z,15.00
2019-05-09T15:08:10.858Z,15.40
2019-05-09T15:10:38.694Z,16.00
2019-05-09T15:13:07.805Z,15.90
2019-05-09T15:15:38.078Z,15.40
2019-05-09T15:18:08.115Z,15.00
2019-05-09T15:20:38.060Z,14.70
2019-05-09T15:23:08.444Z,14.60
2019-05-09T15:25:35.622Z,14.60
2019-05-09T15:28:04.011Z,14.50
2019-05-09T15:30:31.851Z,14.80
2019-05-09T15:33:00.495Z,14.50
2019-05-09T15:35:28.326Z,14.10
2019-05-09T15:37:58.991Z,14.20
2019-05-09T15:40:28.228Z,14.00
2019-05-09T15:42:58.565Z,14.00
2019-05-09T15:45:28.555Z,13.90
2019-05-09T15:47:58.373Z,14.00
2019-05-09T15:50:27.831Z,14.00
2019-05-09T15:52:58.002Z,13.90
2019-05-09T15:55:28.133Z,14.10
2019-05-09T15:57:57.526Z,14.10
2019-05-09T16:00:25.187Z,14.20
2019-05-09T16:02:53.222Z,14.10
2019-05-09T16:05:21.173Z,14.10
2019-05-09T16:07:49.683Z,14.00
2019-05-09T16:10:18.731Z,13.90
2019-05-09T16:12:48.728Z,13.70
2019-05-09T16:15:18.399Z,13.60
2019-05-09T16:17:48.367Z,13.40
2019-05-09T16:20:19.639Z,13.30
2019-05-09T16:22:48.248Z,13.30
2019-05-09T16:25:18.797Z,13.40
2019-05-09T16:27:48.466Z,13.40
2019-05-09T16:30:16.859Z,13.40
2019-05-09T16:32:45.342Z,13.40
2019-05-09T16:35:13.475Z,13.30
2019-05-09T16:37:58.217Z,13.30
2019-05-09T16:40:11.535Z,13.20
2019-05-09T16:42:39.919Z,13.20
2019-05-09T16:45:08.219Z,13.20
2019-05-09T16:47:36.892Z,13.30
2019-05-09T16:50:05.343Z,13.40
2019-05-09T16:52:33.248Z,13.40
2019-05-09T16:55:08.047Z,13.30
2019-05-09T16:57:37.569Z,13.30
2019-05-09T17:00:07.897Z,13.20
2019-05-09T17:02:38.039Z,13.20
2019-05-09T17:05:08.304Z,12.30
2019-05-09T17:07:38.202Z,12.00
2019-05-09T17:10:08.145Z,11.70
2019-05-09T17:12:36.243Z,11.60
2019-05-09T17:15:04.544Z,11.60
2019-05-09T17:17:32.615Z,11.30
2019-05-09T17:20:00.826Z,11.10
2019-05-09T17:22:47.926Z,11.00
2019-05-09T17:25:18.537Z,10.90
2019-05-09T17:27:48.217Z,10.70
2019-05-09T17:30:23.165Z,10.50
2019-05-09T17:33:07.827Z,10.30
2019-05-09T17:35:34.826Z,10.10
2019-05-09T17:38:03.159Z,10.10
2019-05-09T17:40:31.211Z,10.10
2019-05-09T17:42:59.409Z,10.00
2019-05-09T17:45:27.406Z,9.90
2019-05-09T17:47:57.847Z,10.00
2019-05-09T17:50:27.817Z,10.00
2019-05-09T17:52:57.445Z,9.90
2019-05-09T17:55:25.129Z,9.80
2019-05-09T17:57:53.077Z,9.70
2019-05-09T18:00:22.221Z,9.60
2019-05-09T18:02:50.342Z,9.50
2019-05-09T18:05:18.263Z,9.50
2019-05-09T18:07:47.924Z,9.50
2019-05-09T18:10:18.373Z,9.60
2019-05-09T18:12:47.955Z,9.50
2019-05-09T18:15:18.652Z,9.50
2019-05-09T18:17:47.985Z,9.40
2019-05-09T18:20:17.647Z,9.50
2019-05-09T18:22:47.897Z,9.50
2019-05-09T18:25:15.889Z,9.50
2019-05-09T18:27:44.351Z,9.50
2019-05-09T18:30:12.702Z,9.50
2019-05-09T18:32:53.403Z,9.50
2019-05-09T18:35:22.319Z,9.50
2019-05-09T18:37:50.600Z,9.50
2019-05-09T18:40:19.186Z,9.50
2019-05-09T18:42:48.321Z,9.50
2019-05-09T18:45:19.864Z,9.50
2019-05-09T18:47:48.195Z,9.40
2019-05-09T18:50:16.334Z,9.50
2019-05-09T18:52:44.558Z,9.60
2019-05-09T18:55:15.082Z,9.50
2019-05-09T18:57:44.617Z,9.50
2019-05-09T19:00:13.471Z,9.50
2019-05-09T19:02:41.994Z,9.60
2019-05-09T19:05:13.134Z,9.60
2019-05-09T19:12:40.966Z,9.60
2019-05-09T19:15:13.196Z,9.50
2019-05-09T19:18:06.722Z,9.40
2019-05-09T19:20:57.130Z,9.40
2019-05-09T19:23:25.236Z,9.50
2019-05-09T19:25:53.395Z,9.30
2019-05-09T19:28:24.077Z,9.40
2019-05-09T19:30:52.744Z,9.30
2019-05-09T19:33:20.757Z,9.40
2019-05-09T19:35:48.777Z,9.40
2019-05-09T19:38:16.951Z,9.30
2019-05-09T19:40:44.820Z,9.40
2019-05-09T19:43:12.706Z,9.30
2019-05-09T19:45:41.062Z,9.40
2019-05-09T19:48:09.111Z,9.40
2019-05-09T19:50:37.586Z,9.40
2019-05-09T19:53:06.140Z,9.50
2019-05-09T19:55:34.084Z,9.40
2019-05-09T20:03:56.038Z,9.20
2019-05-09T20:06:23.901Z,9.20
2019-05-09T20:08:51.842Z,9.20
2019-05-09T20:11:36.172Z,9.20
2019-05-09T20:14:17.384Z,9.20
2019-05-09T20:16:47.192Z,9.20
2019-05-09T20:19:15.305Z,9.40
2019-05-09T20:21:42.839Z,9.40
2019-05-09T20:24:10.328Z,9.30
2019-05-09T20:26:38.181Z,9.30
2019-05-09T20:29:06.801Z,9.30
2019-05-09T20:31:34.362Z,9.30
2019-05-09T20:34:01.875Z,9.30
2019-05-09T20:36:29.715Z,9.30
2019-05-09T20:38:57.525Z,9.40
2019-05-09T20:41:25.220Z,9.40
2019-05-09T20:43:53.988Z,9.30
2019-05-09T20:46:22.069Z,9.40
2019-05-09T20:48:49.942Z,9.30
2019-05-09T20:51:17.509Z,9.30
2019-05-09T20:53:45.210Z,9.30
2019-05-09T20:56:13.194Z,9.30
2019-05-09T20:58:40.720Z,9.40
2019-05-09T21:01:08.603Z,9.40
2019-05-09T21:03:36.215Z,9.60
2019-05-09T21:06:03.765Z,9.40
2019-05-09T21:08:31.611Z,9.50
2019-05-09T21:10:59.973Z,9.50
2019-05-09T21:13:27.394Z,9.50
2019-05-09T21:15:54.882Z,9.60
2019-05-09T21:18:22.901Z,9.60
2019-05-09T21:20:50.464Z,9.60
2019-05-09T21:23:24.870Z,9.60
2019-05-09T21:25:49.216Z,9.60
2019-05-09T21:28:16.713Z,9.50
2019-05-09T21:30:44.158Z,9.40
2019-05-09T21:33:11.792Z,9.40
2019-05-09T21:35:39.475Z,9.40
2019-05-09T21:38:07.280Z,9.40
2019-05-09T21:40:35.757Z,9.50
2019-05-09T21:43:03.392Z,9.50
2019-05-09T21:45:31.304Z,9.50
2019-05-09T21:47:58.893Z,9.50
2019-05-09T21:50:26.330Z,9.40
2019-05-09T21:52:54.100Z,9.50
2019-05-09T21:55:22.056Z,9.40
2019-05-09T21:57:49.622Z,9.40
2019-05-09T22:00:23.894Z,9.40
2019-05-09T22:02:53.347Z,9.40
2019-05-09T22:05:21.285Z,9.50
2019-05-09T22:07:50.124Z,9.50
2019-05-09T22:10:17.557Z,9.50
2019-05-09T22:12:45.221Z,9.40
2019-05-09T22:15:12.811Z,9.40
2019-05-09T22:17:40.500Z,9.50
2019-05-09T22:20:09.094Z,9.40
2019-05-09T22:22:37.913Z,9.40
2019-05-09T22:25:06.720Z,9.40
2019-05-09T22:27:34.814Z,9.30
2019-05-09T22:30:03.122Z,9.30
2019-05-09T22:32:30.983Z,9.30
2019-05-09T22:34:59.008Z,9.30
2019-05-09T22:37:26.543Z,9.30
2019-05-09T22:39:54.248Z,9.30
2019-05-09T22:42:22.046Z,9.30
2019-05-09T22:44:50.462Z,9.30
2019-05-09T22:47:18.157Z,9.20
2019-05-09T22:49:45.945Z,9.20
2019-05-09T22:52:13.932Z,9.20
2019-05-09T22:54:42.785Z,9.20
2019-05-09T22:57:10.460Z,9.10
2019-05-09T22:59:38.162Z,9.10
2019-05-09T23:02:07.437Z,9.10
2019-05-09T23:04:35.327Z,9.20
2019-05-09T23:07:02.982Z,9.20
2019-05-09T23:09:30.999Z,9.20
2019-05-09T23:11:58.818Z,9.20
2019-05-09T23:14:26.458Z,9.30
2019-05-09T23:16:54.134Z,9.30
2019-05-09T23:19:22.859Z,9.20
2019-05-09T23:21:51.064Z,9.20
2019-05-09T23:24:27.951Z,9.30
2019-05-09T23:26:49.277Z,9.20
2019-05-09T23:29:17.257Z,9.20
2019-05-09T23:31:54.061Z,9.30
2019-05-09T23:34:21.493Z,9.30
2019-05-09T23:36:49.187Z,9.30
2019-05-09T23:39:23.395Z,9.30
2019-05-09T23:41:50.834Z,9.20
2019-05-09T23:44:18.337Z,9.30
2019-05-09T23:46:45.844Z,9.30
2019-05-09T23:49:13.358Z,9.20
2019-05-09T23:51:48.186Z,9.20
2019-05-09T23:54:45.805Z,9.20
2019-05-09T23:57:27.017Z,9.20
